sensor_id;sensor_type;location;lat;lon;timestamp;pressure;altitude;pressure_sealevel;temperature;humidity
76378;BME280;65200;49.500;8.654;2023-07-08T00:01:34;100415.59;;;25.94;27.20
76378;BME280;65200;49.500;8.654;2023-07-08T00:04:01;100417.56;;;25.88;26.10
76378;BME280;65200;49.500;8.654;2023-07-08T00:06:29;100411.53;;;25.86;25.92
76378;BME280;65200;49.500;8.654;2023-07-08T00:08:55;100410.78;;;25.81;25.94
76378;BME280;65200;49.500;8.654;2023-07-08T00:11:22;100402.94;;;25.93;26.16
76378;BME280;65200;49.500;8.654;2023-07-08T00:13:50;100397.84;;;25.81;26.72
76378;BME280;65200;49.500;8.654;2023-07-08T00:16:18;100399.66;;;25.62;27.25
76378;BME280;65200;49.500;8.654;2023-07-08T00:18:45;100409.19;;;25.41;26.75
76378;BME280;65200;49.500;8.654;2023-07-08T00:21:15;100400.16;;;25.35;27.04
76378;BME280;65200;49.500;8.654;2023-07-08T00:23:43;100408.69;;;25.29;26.98
76378;BME280;65200;49.500;8.654;2023-07-08T00:26:11;100397.25;;;25.17;27.70
76378;BME280;65200;49.500;8.654;2023-07-08T00:28:39;100397.16;;;25.37;26.62
76378;BME280;65200;49.500;8.654;2023-07-08T00:31:09;100389.44;;;25.39;27.35
76378;BME280;65200;49.500;8.654;2023-07-08T00:33:36;100387.97;;;25.08;28.45
76378;BME280;65200;49.500;8.654;2023-07-08T00:36:08;100394.63;;;25.02;27.56
76378;BME280;65200;49.500;8.654;2023-07-08T00:38:37;100401.00;;;24.87;29.04
76378;BME280;65200;49.500;8.654;2023-07-08T00:41:09;100404.59;;;24.83;29.16
76378;BME280;65200;49.500;8.654;2023-07-08T00:43:44;100403.31;;;24.65;29.41
76378;BME280;65200;49.500;8.654;2023-07-08T00:46:20;100396.28;;;24.39;30.06
76378;BME280;65200;49.500;8.654;2023-07-08T00:48:52;100403.78;;;24.82;27.32
76378;BME280;65200;49.500;8.654;2023-07-08T00:51:21;100400.50;;;24.80;29.02
76378;BME280;65200;49.500;8.654;2023-07-08T00:53:48;100407.97;;;24.70;29.00
76378;BME280;65200;49.500;8.654;2023-07-08T00:56:19;100407.78;;;25.00;27.49
76378;BME280;65200;49.500;8.654;2023-07-08T00:58:49;100400.31;;;25.10;27.23
76378;BME280;65200;49.500;8.654;2023-07-08T01:01:18;100411.06;;;25.02;27.76
76378;BME280;65200;49.500;8.654;2023-07-08T01:03:48;100411.22;;;24.82;28.47
76378;BME280;65200;49.500;8.654;2023-07-08T01:06:15;100417.81;;;24.71;27.97
76378;BME280;65200;49.500;8.654;2023-07-08T01:08:42;100417.78;;;24.81;28.07
76378;BME280;65200;49.500;8.654;2023-07-08T01:11:08;100415.91;;;24.66;28.50
76378;BME280;65200;49.500;8.654;2023-07-08T01:13:41;100421.63;;;24.80;28.78
76378;BME280;65200;49.500;8.654;2023-07-08T01:16:09;100417.81;;;24.66;28.15
76378;BME280;65200;49.500;8.654;2023-07-08T01:18:37;100417.13;;;24.30;31.36
76378;BME280;65200;49.500;8.654;2023-07-08T01:21:25;100419.66;;;23.66;32.49
76378;BME280;65200;49.500;8.654;2023-07-08T01:23:53;100417.69;;;23.12;34.04
76378;BME280;65200;49.500;8.654;2023-07-08T01:26:22;100423.66;;;22.93;34.62
76378;BME280;65200;49.500;8.654;2023-07-08T01:28:50;100411.84;;;22.73;34.35
76378;BME280;65200;49.500;8.654;2023-07-08T01:31:18;100415.66;;;22.62;34.23
76378;BME280;65200;49.500;8.654;2023-07-08T01:33:45;100407.19;;;22.63;33.57
76378;BME280;65200;49.500;8.654;2023-07-08T01:36:11;100423.78;;;22.52;34.79
76378;BME280;65200;49.500;8.654;2023-07-08T01:38:39;100420.44;;;22.45;34.16
76378;BME280;65200;49.500;8.654;2023-07-08T01:41:11;100421.72;;;22.27;35.82
76378;BME280;65200;49.500;8.654;2023-07-08T01:43:38;100419.81;;;22.23;35.81
76378;BME280;65200;49.500;8.654;2023-07-08T01:46:11;100412.88;;;22.10;35.59
76378;BME280;65200;49.500;8.654;2023-07-08T01:48:41;100412.59;;;22.02;35.54
76378;BME280;65200;49.500;8.654;2023-07-08T01:51:11;100410.88;;;21.96;37.42
76378;BME280;65200;49.500;8.654;2023-07-08T01:53:41;100410.34;;;21.94;35.79
76378;BME280;65200;49.500;8.654;2023-07-08T01:56:09;100408.91;;;21.86;35.76
76378;BME280;65200;49.500;8.654;2023-07-08T01:58:36;100404.28;;;21.87;36.53
76378;BME280;65200;49.500;8.654;2023-07-08T02:01:03;100397.63;;;21.72;36.22
76378;BME280;65200;49.500;8.654;2023-07-08T02:03:30;100407.97;;;21.70;37.05
76378;BME280;65200;49.500;8.654;2023-07-08T02:05:57;100402.81;;;21.74;35.61
76378;BME280;65200;49.500;8.654;2023-07-08T02:08:23;100402.94;;;21.84;34.66
76378;BME280;65200;49.500;8.654;2023-07-08T02:10:51;100401.00;;;21.85;35.59
76378;BME280;65200;49.500;8.654;2023-07-08T02:13:20;100394.28;;;22.02;34.69
76378;BME280;65200;49.500;8.654;2023-07-08T02:15:47;100399.94;;;21.91;36.47
76378;BME280;65200;49.500;8.654;2023-07-08T02:18:14;100391.75;;;21.86;35.71
76378;BME280;65200;49.500;8.654;2023-07-08T02:20:42;100391.41;;;21.77;35.74
76378;BME280;65200;49.500;8.654;2023-07-08T02:23:08;100387.13;;;21.91;35.25
76378;BME280;65200;49.500;8.654;2023-07-08T02:25:34;100387.34;;;21.85;36.09
76378;BME280;65200;49.500;8.654;2023-07-08T02:28:01;100390.19;;;21.68;36.02
76378;BME280;65200;49.500;8.654;2023-07-08T02:30:29;100395.91;;;21.66;36.48
76378;BME280;65200;49.500;8.654;2023-07-08T02:32:55;100399.19;;;21.63;35.53
76378;BME280;65200;49.500;8.654;2023-07-08T02:35:23;100392.66;;;21.64;36.34
76378;BME280;65200;49.500;8.654;2023-07-08T02:37:51;100396.53;;;21.73;35.92
76378;BME280;65200;49.500;8.654;2023-07-08T02:40:17;100405.88;;;21.78;35.95
76378;BME280;65200;49.500;8.654;2023-07-08T02:42:44;100404.97;;;21.40;38.74
76378;BME280;65200;49.500;8.654;2023-07-08T02:45:11;100412.28;;;21.30;38.44
76378;BME280;65200;49.500;8.654;2023-07-08T02:47:39;100413.59;;;21.27;38.51
76378;BME280;65200;49.500;8.654;2023-07-08T02:50:07;100419.19;;;21.16;39.05
76378;BME280;65200;49.500;8.654;2023-07-08T02:52:34;100426.25;;;20.90;39.96
76378;BME280;65200;49.500;8.654;2023-07-08T02:55:00;100429.25;;;20.89;40.16
76378;BME280;65200;49.500;8.654;2023-07-08T02:57:26;100421.91;;;20.89;40.03
76378;BME280;65200;49.500;8.654;2023-07-08T02:59:53;100432.38;;;20.76;40.01
76378;BME280;65200;49.500;8.654;2023-07-08T03:02:21;100420.41;;;20.77;40.85
76378;BME280;65200;49.500;8.654;2023-07-08T03:04:48;100424.03;;;20.39;41.23
76378;BME280;65200;49.500;8.654;2023-07-08T03:07:15;100429.78;;;20.42;41.07
76378;BME280;65200;49.500;8.654;2023-07-08T03:09:42;100427.25;;;20.58;42.16
76378;BME280;65200;49.500;8.654;2023-07-08T03:12:10;100420.34;;;20.50;41.84
76378;BME280;65200;49.500;8.654;2023-07-08T03:14:36;100422.06;;;20.56;42.25
76378;BME280;65200;49.500;8.654;2023-07-08T03:17:03;100425.22;;;20.10;44.31
76378;BME280;65200;49.500;8.654;2023-07-08T03:19:30;100427.81;;;20.00;44.22
76378;BME280;65200;49.500;8.654;2023-07-08T03:21:58;100427.50;;;19.80;44.99
76378;BME280;65200;49.500;8.654;2023-07-08T03:24:28;100421.28;;;19.84;44.43
76378;BME280;65200;49.500;8.654;2023-07-08T03:26:55;100421.78;;;19.98;42.88
76378;BME280;65200;49.500;8.654;2023-07-08T03:29:22;100435.22;;;19.71;45.99
76378;BME280;65200;49.500;8.654;2023-07-08T03:31:49;100434.84;;;19.63;46.49
76378;BME280;65200;49.500;8.654;2023-07-08T03:34:16;100432.28;;;19.40;46.92
76378;BME280;65200;49.500;8.654;2023-07-08T03:36:44;100426.88;;;19.28;47.21
76378;BME280;65200;49.500;8.654;2023-07-08T03:39:15;100437.16;;;19.26;47.67
76378;BME280;65200;49.500;8.654;2023-07-08T03:41:42;100431.44;;;19.11;48.81
76378;BME280;65200;49.500;8.654;2023-07-08T03:44:09;100436.47;;;19.02;49.14
76378;BME280;65200;49.500;8.654;2023-07-08T03:46:36;100442.31;;;19.11;48.83
76378;BME280;65200;49.500;8.654;2023-07-08T03:49:04;100432.97;;;19.19;47.53
76378;BME280;65200;49.500;8.654;2023-07-08T03:51:32;100436.13;;;18.99;48.68
76378;BME280;65200;49.500;8.654;2023-07-08T03:53:59;100434.69;;;19.25;47.27
76378;BME280;65200;49.500;8.654;2023-07-08T03:56:27;100441.22;;;19.40;47.48
76378;BME280;65200;49.500;8.654;2023-07-08T03:58:54;100438.63;;;19.62;46.48
76378;BME280;65200;49.500;8.654;2023-07-08T04:01:22;100443.06;;;19.84;45.82
76378;BME280;65200;49.500;8.654;2023-07-08T04:03:50;100449.00;;;19.81;46.90
76378;BME280;65200;49.500;8.654;2023-07-08T04:06:17;100440.91;;;20.03;46.91
76378;BME280;65200;49.500;8.654;2023-07-08T04:08:44;100438.94;;;19.98;46.40
76378;BME280;65200;49.500;8.654;2023-07-08T04:11:12;100436.13;;;20.10;45.75
76378;BME280;65200;49.500;8.654;2023-07-08T04:13:40;100437.50;;;20.12;46.29
76378;BME280;65200;49.500;8.654;2023-07-08T04:16:07;100437.59;;;20.17;46.75
76378;BME280;65200;49.500;8.654;2023-07-08T04:18:39;100447.31;;;20.13;46.65
76378;BME280;65200;49.500;8.654;2023-07-08T04:21:06;100435.63;;;20.13;46.72
76378;BME280;65200;49.500;8.654;2023-07-08T04:23:32;100435.13;;;20.16;46.70
76378;BME280;65200;49.500;8.654;2023-07-08T04:25:59;100432.25;;;20.22;47.37
76378;BME280;65200;49.500;8.654;2023-07-08T04:28:26;100436.59;;;20.23;47.55
76378;BME280;65200;49.500;8.654;2023-07-08T04:30:54;100420.84;;;20.25;47.56
76378;BME280;65200;49.500;8.654;2023-07-08T04:33:20;100427.81;;;20.16;48.14
76378;BME280;65200;49.500;8.654;2023-07-08T04:35:47;100433.06;;;20.06;49.27
76378;BME280;65200;49.500;8.654;2023-07-08T04:38:17;100438.91;;;20.15;49.50
76378;BME280;65200;49.500;8.654;2023-07-08T04:40:44;100435.47;;;20.19;49.45
76378;BME280;65200;49.500;8.654;2023-07-08T04:43:11;100442.09;;;20.28;48.25
76378;BME280;65200;49.500;8.654;2023-07-08T04:45:39;100444.34;;;20.15;47.83
76378;BME280;65200;49.500;8.654;2023-07-08T04:48:11;100448.53;;;20.39;47.70
76378;BME280;65200;49.500;8.654;2023-07-08T04:50:40;100454.66;;;20.29;47.74
76378;BME280;65200;49.500;8.654;2023-07-08T04:53:07;100454.72;;;20.34;48.81
76378;BME280;65200;49.500;8.654;2023-07-08T04:55:34;100451.78;;;20.19;49.82
76378;BME280;65200;49.500;8.654;2023-07-08T04:58:00;100448.31;;;20.24;49.13
76378;BME280;65200;49.500;8.654;2023-07-08T05:00:28;100452.81;;;20.35;49.93
76378;BME280;65200;49.500;8.654;2023-07-08T05:02:54;100452.63;;;20.41;48.65
76378;BME280;65200;49.500;8.654;2023-07-08T05:05:22;100447.94;;;20.37;49.50
76378;BME280;65200;49.500;8.654;2023-07-08T05:07:49;100438.91;;;20.53;49.90
76378;BME280;65200;49.500;8.654;2023-07-08T05:10:15;100442.06;;;20.67;49.21
76378;BME280;65200;49.500;8.654;2023-07-08T05:12:43;100446.00;;;20.76;49.44
76378;BME280;65200;49.500;8.654;2023-07-08T05:15:10;100445.84;;;20.87;49.93
76378;BME280;65200;49.500;8.654;2023-07-08T05:17:37;100441.22;;;21.09;47.05
76378;BME280;65200;49.500;8.654;2023-07-08T05:20:05;100443.88;;;21.57;47.21
76378;BME280;65200;49.500;8.654;2023-07-08T05:22:34;100447.00;;;21.71;47.26
76378;BME280;65200;49.500;8.654;2023-07-08T05:25:01;100443.84;;;21.84;45.18
76378;BME280;65200;49.500;8.654;2023-07-08T05:27:28;100449.13;;;22.01;44.45
76378;BME280;65200;49.500;8.654;2023-07-08T05:29:55;100444.38;;;22.23;44.67
76378;BME280;65200;49.500;8.654;2023-07-08T05:32:21;100450.41;;;22.30;45.14
76378;BME280;65200;49.500;8.654;2023-07-08T05:34:49;100450.41;;;22.30;45.49
76378;BME280;65200;49.500;8.654;2023-07-08T05:37:16;100456.13;;;22.28;47.64
76378;BME280;65200;49.500;8.654;2023-07-08T05:39:45;100455.34;;;22.28;47.99
76378;BME280;65200;49.500;8.654;2023-07-08T05:42:11;100463.56;;;22.38;45.83
76378;BME280;65200;49.500;8.654;2023-07-08T05:44:38;100476.22;;;22.49;44.20
76378;BME280;65200;49.500;8.654;2023-07-08T05:47:04;100498.03;;;22.07;46.79
76378;BME280;65200;49.500;8.654;2023-07-08T05:49:31;100480.81;;;22.02;47.14
76378;BME280;65200;49.500;8.654;2023-07-08T05:51:58;100508.13;;;22.43;46.30
76378;BME280;65200;49.500;8.654;2023-07-08T05:54:24;100510.22;;;22.68;45.93
76378;BME280;65200;49.500;8.654;2023-07-08T05:56:52;100522.63;;;22.95;44.25
76378;BME280;65200;49.500;8.654;2023-07-08T05:59:18;100546.28;;;23.27;44.92
76378;BME280;65200;49.500;8.654;2023-07-08T06:01:45;100575.19;;;23.18;44.22
76378;BME280;65200;49.500;8.654;2023-07-08T06:04:11;100572.72;;;23.11;44.08
76378;BME280;65200;49.500;8.654;2023-07-08T06:06:37;100570.31;;;23.25;44.88
76378;BME280;65200;49.500;8.654;2023-07-08T06:09:04;100577.13;;;23.12;45.38
76378;BME280;65200;49.500;8.654;2023-07-08T06:11:30;100587.69;;;22.98;48.36
76378;BME280;65200;49.500;8.654;2023-07-08T06:13:58;100599.00;;;22.70;50.19
76378;BME280;65200;49.500;8.654;2023-07-08T06:16:24;100598.47;;;22.37;53.40
76378;BME280;65200;49.500;8.654;2023-07-08T06:18:51;100603.81;;;22.22;54.54
76378;BME280;65200;49.500;8.654;2023-07-08T06:21:17;100603.19;;;22.10;53.23
76378;BME280;65200;49.500;8.654;2023-07-08T06:23:44;100585.69;;;22.11;58.76
76378;BME280;65200;49.500;8.654;2023-07-08T06:26:10;100589.06;;;22.18;58.47
76378;BME280;65200;49.500;8.654;2023-07-08T06:28:36;100575.22;;;22.29;56.48
76378;BME280;65200;49.500;8.654;2023-07-08T06:31:04;100582.75;;;22.49;52.42
76378;BME280;65200;49.500;8.654;2023-07-08T06:33:31;100580.47;;;22.77;48.91
76378;BME280;65200;49.500;8.654;2023-07-08T06:35:57;100585.78;;;22.94;50.93
76378;BME280;65200;49.500;8.654;2023-07-08T06:38:23;100582.81;;;23.05;50.04
76378;BME280;65200;49.500;8.654;2023-07-08T06:40:50;100580.41;;;23.19;49.47
76378;BME280;65200;49.500;8.654;2023-07-08T06:43:16;100582.91;;;23.21;49.54
76378;BME280;65200;49.500;8.654;2023-07-08T06:45:43;100578.22;;;23.21;49.62
76378;BME280;65200;49.500;8.654;2023-07-08T06:48:11;100577.44;;;23.21;49.06
76378;BME280;65200;49.500;8.654;2023-07-08T06:50:38;100577.75;;;23.34;48.91
76378;BME280;65200;49.500;8.654;2023-07-08T06:53:04;100576.69;;;23.35;47.49
76378;BME280;65200;49.500;8.654;2023-07-08T06:55:32;100574.78;;;23.46;45.81
76378;BME280;65200;49.500;8.654;2023-07-08T06:57:58;100566.38;;;23.67;45.25
76378;BME280;65200;49.500;8.654;2023-07-08T07:00:25;100561.47;;;23.69;45.56
76378;BME280;65200;49.500;8.654;2023-07-08T07:02:51;100565.03;;;23.85;46.85
76378;BME280;65200;49.500;8.654;2023-07-08T07:05:19;100564.22;;;23.94;45.02
76378;BME280;65200;49.500;8.654;2023-07-08T07:07:46;100562.59;;;24.18;46.31
76378;BME280;65200;49.500;8.654;2023-07-08T07:10:12;100565.03;;;24.45;46.97
76378;BME280;65200;49.500;8.654;2023-07-08T07:12:38;100575.72;;;24.52;46.15
76378;BME280;65200;49.500;8.654;2023-07-08T07:15:06;100579.03;;;24.69;46.87
76378;BME280;65200;49.500;8.654;2023-07-08T07:17:32;100576.78;;;24.66;44.65
76378;BME280;65200;49.500;8.654;2023-07-08T07:20:00;100573.78;;;24.72;45.42
76378;BME280;65200;49.500;8.654;2023-07-08T07:22:28;100574.34;;;24.74;46.89
76378;BME280;65200;49.500;8.654;2023-07-08T07:24:55;100575.72;;;24.82;44.79
76378;BME280;65200;49.500;8.654;2023-07-08T07:27:21;100570.16;;;24.97;43.87
76378;BME280;65200;49.500;8.654;2023-07-08T07:29:49;100576.09;;;25.24;42.12
76378;BME280;65200;49.500;8.654;2023-07-08T07:32:18;100584.53;;;25.42;41.57
76378;BME280;65200;49.500;8.654;2023-07-08T07:34:46;100580.22;;;25.75;41.82
76378;BME280;65200;49.500;8.654;2023-07-08T07:37:14;100589.69;;;25.98;42.02
76378;BME280;65200;49.500;8.654;2023-07-08T07:39:43;100586.13;;;25.53;42.45
76378;BME280;65200;49.500;8.654;2023-07-08T07:42:11;100595.31;;;25.19;43.27
76378;BME280;65200;49.500;8.654;2023-07-08T07:44:38;100591.53;;;25.05;44.35
76378;BME280;65200;49.500;8.654;2023-07-08T07:47:06;100588.16;;;25.23;44.01
76378;BME280;65200;49.500;8.654;2023-07-08T07:49:33;100597.53;;;25.76;43.46
76378;BME280;65200;49.500;8.654;2023-07-08T07:51:59;100596.25;;;26.40;42.09
76378;BME280;65200;49.500;8.654;2023-07-08T07:54:26;100602.28;;;26.42;42.03
76378;BME280;65200;49.500;8.654;2023-07-08T07:56:54;100601.38;;;27.51;40.57
76378;BME280;65200;49.500;8.654;2023-07-08T07:59:21;100594.78;;;27.71;39.07
76378;BME280;65200;49.500;8.654;2023-07-08T08:01:47;100597.22;;;27.07;40.30
76378;BME280;65200;49.500;8.654;2023-07-08T08:04:14;100591.34;;;26.61;41.19
76378;BME280;65200;49.500;8.654;2023-07-08T08:06:40;100609.19;;;25.96;42.42
76378;BME280;65200;49.500;8.654;2023-07-08T08:09:07;100605.84;;;26.09;42.53
76378;BME280;65200;49.500;8.654;2023-07-08T08:11:33;100602.28;;;27.00;41.21
76378;BME280;65200;49.500;8.654;2023-07-08T08:14:01;100596.47;;;28.04;39.27
76378;BME280;65200;49.500;8.654;2023-07-08T08:16:29;100605.50;;;28.09;38.44
76378;BME280;65200;49.500;8.654;2023-07-08T08:18:56;100608.22;;;29.19;38.05
76378;BME280;65200;49.500;8.654;2023-07-08T08:21:23;100605.25;;;29.29;36.27
76378;BME280;65200;49.500;8.654;2023-07-08T08:23:49;100612.00;;;28.96;36.77
76378;BME280;65200;49.500;8.654;2023-07-08T08:26:16;100605.91;;;28.35;38.19
76378;BME280;65200;49.500;8.654;2023-07-08T08:28:42;100607.19;;;28.88;38.08
76378;BME280;65200;49.500;8.654;2023-07-08T08:31:10;100611.09;;;29.14;38.76
76378;BME280;65200;49.500;8.654;2023-07-08T08:33:36;100612.81;;;29.51;36.78
76378;BME280;65200;49.500;8.654;2023-07-08T08:36:03;100623.50;;;29.93;36.64
76378;BME280;65200;49.500;8.654;2023-07-08T08:38:30;100610.03;;;28.83;37.74
76378;BME280;65200;49.500;8.654;2023-07-08T08:40:56;100617.88;;;27.93;39.66
76378;BME280;65200;49.500;8.654;2023-07-08T08:43:28;100615.91;;;28.63;39.26
76378;BME280;65200;49.500;8.654;2023-07-08T08:46:04;100623.38;;;29.35;37.75
76378;BME280;65200;49.500;8.654;2023-07-08T08:48:40;100620.38;;;28.91;38.53
76378;BME280;65200;49.500;8.654;2023-07-08T08:51:10;100616.66;;;28.82;38.27
76378;BME280;65200;49.500;8.654;2023-07-08T08:53:39;100623.75;;;29.42;37.71
76378;BME280;65200;49.500;8.654;2023-07-08T08:56:11;100621.63;;;29.26;37.91
76378;BME280;65200;49.500;8.654;2023-07-08T08:58:43;100614.75;;;29.64;37.97
76378;BME280;65200;49.500;8.654;2023-07-08T09:01:12;100620.88;;;29.75;36.79
76378;BME280;65200;49.500;8.654;2023-07-08T09:03:47;100630.88;;;30.20;36.75
76378;BME280;65200;49.500;8.654;2023-07-08T09:06:18;100624.22;;;29.99;36.31
76378;BME280;65200;49.500;8.654;2023-07-08T09:08:46;100623.38;;;30.20;36.52
76378;BME280;65200;49.500;8.654;2023-07-08T09:11:26;100616.44;;;30.67;36.36
76378;BME280;65200;49.500;8.654;2023-07-08T09:13:54;100617.63;;;29.73;37.34
76378;BME280;65200;49.500;8.654;2023-07-08T09:16:35;100617.25;;;29.38;37.37
76378;BME280;65200;49.500;8.654;2023-07-08T09:19:11;100613.31;;;30.38;37.19
76378;BME280;65200;49.500;8.654;2023-07-08T09:21:43;100619.22;;;30.23;36.48
76378;BME280;65200;49.500;8.654;2023-07-08T09:24:16;100616.09;;;29.26;38.20
76378;BME280;65200;49.500;8.654;2023-07-08T09:26:45;100615.38;;;29.61;37.99
76378;BME280;65200;49.500;8.654;2023-07-08T09:29:13;100609.91;;;29.83;36.79
76378;BME280;65200;49.500;8.654;2023-07-08T09:31:40;100607.88;;;29.62;38.38
76378;BME280;65200;49.500;8.654;2023-07-08T09:34:12;100606.50;;;29.23;38.73
76378;BME280;65200;49.500;8.654;2023-07-08T09:36:41;100605.25;;;29.29;37.83
76378;BME280;65200;49.500;8.654;2023-07-08T09:39:12;100608.44;;;29.50;37.86
76378;BME280;65200;49.500;8.654;2023-07-08T09:41:40;100600.81;;;29.83;37.20
76378;BME280;65200;49.500;8.654;2023-07-08T09:44:16;100609.84;;;29.47;38.62
76378;BME280;65200;49.500;8.654;2023-07-08T09:46:43;100612.09;;;29.59;38.95
76378;BME280;65200;49.500;8.654;2023-07-08T09:49:19;100605.22;;;29.70;38.05
76378;BME280;65200;49.500;8.654;2023-07-08T09:51:46;100600.41;;;29.76;37.15
76378;BME280;65200;49.500;8.654;2023-07-08T09:54:15;100604.72;;;29.68;37.42
76378;BME280;65200;49.500;8.654;2023-07-08T09:56:44;100600.00;;;30.04;37.52
76378;BME280;65200;49.500;8.654;2023-07-08T09:59:13;100600.53;;;30.06;36.94
76378;BME280;65200;49.500;8.654;2023-07-08T10:01:41;100597.34;;;30.35;36.74
76378;BME280;65200;49.500;8.654;2023-07-08T10:04:08;100597.53;;;30.91;35.33
76378;BME280;65200;49.500;8.654;2023-07-08T10:06:36;100590.50;;;30.85;33.75
76378;BME280;65200;49.500;8.654;2023-07-08T10:09:04;100598.03;;;30.93;35.10
76378;BME280;65200;49.500;8.654;2023-07-08T10:11:35;100598.38;;;31.00;34.86
76378;BME280;65200;49.500;8.654;2023-07-08T10:14:04;100595.50;;;31.14;35.98
76378;BME280;65200;49.500;8.654;2023-07-08T10:16:33;100603.69;;;31.27;36.08
76378;BME280;65200;49.500;8.654;2023-07-08T10:19:01;100602.19;;;31.69;33.80
76378;BME280;65200;49.500;8.654;2023-07-08T10:21:37;100605.94;;;31.64;34.42
76378;BME280;65200;49.500;8.654;2023-07-08T10:24:20;100601.72;;;31.19;34.10
76378;BME280;65200;49.500;8.654;2023-07-08T10:26:55;100607.19;;;31.02;35.01
76378;BME280;65200;49.500;8.654;2023-07-08T10:29:29;100610.50;;;31.21;35.10
76378;BME280;65200;49.500;8.654;2023-07-08T10:32:04;100605.72;;;31.52;34.71
76378;BME280;65200;49.500;8.654;2023-07-08T10:34:41;100601.84;;;31.70;33.60
76378;BME280;65200;49.500;8.654;2023-07-08T10:37:22;100600.84;;;31.49;33.66
76378;BME280;65200;49.500;8.654;2023-07-08T10:40:00;100595.81;;;31.77;34.09
76378;BME280;65200;49.500;8.654;2023-07-08T10:42:37;100591.22;;;31.38;34.06
76378;BME280;65200;49.500;8.654;2023-07-08T10:45:10;100590.75;;;31.70;34.13
76378;BME280;65200;49.500;8.654;2023-07-08T10:47:48;100585.25;;;32.04;33.38
76378;BME280;65200;49.500;8.654;2023-07-08T10:50:34;100579.00;;;32.59;33.79
76378;BME280;65200;49.500;8.654;2023-07-08T10:53:15;100585.06;;;32.61;33.43
76378;BME280;65200;49.500;8.654;2023-07-08T10:55:47;100588.50;;;32.41;33.22
76378;BME280;65200;49.500;8.654;2023-07-08T10:58:29;100581.47;;;32.35;33.29
76378;BME280;65200;49.500;8.654;2023-07-08T11:01:09;100574.31;;;32.17;33.96
76378;BME280;65200;49.500;8.654;2023-07-08T11:04:13;100586.53;;;32.50;32.38
76378;BME280;65200;49.500;8.654;2023-07-08T11:06:49;100581.00;;;32.16;33.26
76378;BME280;65200;49.500;8.654;2023-07-08T11:09:23;100578.56;;;32.40;32.28
76378;BME280;65200;49.500;8.654;2023-07-08T11:11:54;100572.81;;;32.45;31.88
76378;BME280;65200;49.500;8.654;2023-07-08T11:14:25;100581.31;;;32.23;33.15
76378;BME280;65200;49.500;8.654;2023-07-08T11:16:57;100570.25;;;32.40;33.44
76378;BME280;65200;49.500;8.654;2023-07-08T11:19:30;100567.94;;;32.25;32.71
76378;BME280;65200;49.500;8.654;2023-07-08T11:22:00;100563.84;;;32.31;33.61
76378;BME280;65200;49.500;8.654;2023-07-08T11:24:35;100563.19;;;32.25;32.84
76378;BME280;65200;49.500;8.654;2023-07-08T11:27:08;100564.31;;;32.50;32.95
76378;BME280;65200;49.500;8.654;2023-07-08T11:29:42;100566.63;;;32.48;32.81
76378;BME280;65200;49.500;8.654;2023-07-08T11:32:14;100556.19;;;32.82;32.08
76378;BME280;65200;49.500;8.654;2023-07-08T11:34:43;100543.41;;;32.61;31.17
76378;BME280;65200;49.500;8.654;2023-07-08T11:37:11;100546.97;;;32.70;31.59
76378;BME280;65200;49.500;8.654;2023-07-08T11:39:42;100547.19;;;33.23;32.41
76378;BME280;65200;49.500;8.654;2023-07-08T11:42:20;100557.81;;;32.92;32.57
76378;BME280;65200;49.500;8.654;2023-07-08T11:44:52;100539.69;;;32.86;31.58
76378;BME280;65200;49.500;8.654;2023-07-08T11:47:24;100547.88;;;33.20;29.96
76378;BME280;65200;49.500;8.654;2023-07-08T11:49:51;100547.63;;;33.63;30.81
76378;BME280;65200;49.500;8.654;2023-07-08T11:52:20;100541.53;;;33.69;30.36
76378;BME280;65200;49.500;8.654;2023-07-08T11:54:55;100545.78;;;33.87;29.62
76378;BME280;65200;49.500;8.654;2023-07-08T11:57:28;100544.84;;;33.63;30.76
76378;BME280;65200;49.500;8.654;2023-07-08T12:00:13;100532.16;;;33.53;29.85
76378;BME280;65200;49.500;8.654;2023-07-08T12:02:52;100533.66;;;33.71;28.49
76378;BME280;65200;49.500;8.654;2023-07-08T12:05:29;100532.22;;;33.86;28.81
76378;BME280;65200;49.500;8.654;2023-07-08T12:07:57;100528.41;;;34.11;29.24
76378;BME280;65200;49.500;8.654;2023-07-08T12:10:30;100520.22;;;33.73;28.98
76378;BME280;65200;49.500;8.654;2023-07-08T12:12:58;100526.31;;;33.46;28.05
76378;BME280;65200;49.500;8.654;2023-07-08T12:15:25;100520.81;;;33.79;27.40
76378;BME280;65200;49.500;8.654;2023-07-08T12:17:55;100522.53;;;34.24;30.66
76378;BME280;65200;49.500;8.654;2023-07-08T12:20:25;100525.06;;;34.17;29.29
76378;BME280;65200;49.500;8.654;2023-07-08T12:22:52;100521.81;;;34.15;26.32
76378;BME280;65200;49.500;8.654;2023-07-08T12:25:21;100525.06;;;34.17;27.84
76378;BME280;65200;49.500;8.654;2023-07-08T12:27:49;100521.13;;;34.18;28.65
76378;BME280;65200;49.500;8.654;2023-07-08T12:30:16;100521.03;;;33.94;29.61
76378;BME280;65200;49.500;8.654;2023-07-08T12:32:43;100521.09;;;33.86;29.64
76378;BME280;65200;49.500;8.654;2023-07-08T12:35:19;100513.84;;;33.93;29.18
76378;BME280;65200;49.500;8.654;2023-07-08T12:37:47;100520.41;;;34.09;28.67
76378;BME280;65200;49.500;8.654;2023-07-08T12:40:14;100511.59;;;33.87;29.48
76378;BME280;65200;49.500;8.654;2023-07-08T12:42:40;100523.59;;;33.79;29.31
76378;BME280;65200;49.500;8.654;2023-07-08T12:45:13;100513.13;;;34.17;27.99
76378;BME280;65200;49.500;8.654;2023-07-08T12:47:40;100519.38;;;34.58;27.33
76378;BME280;65200;49.500;8.654;2023-07-08T12:50:08;100513.34;;;34.56;26.67
76378;BME280;65200;49.500;8.654;2023-07-08T12:52:35;100510.09;;;34.54;28.05
76378;BME280;65200;49.500;8.654;2023-07-08T12:55:01;100507.56;;;34.49;27.47
76378;BME280;65200;49.500;8.654;2023-07-08T12:57:28;100513.78;;;34.46;27.46
76378;BME280;65200;49.500;8.654;2023-07-08T12:59:55;100523.78;;;34.47;28.16